Latest Weather Observations for Mawson*

IDT60801

Issued at 5:02 am EDT Monday 5 December 2016 (issued every 30 minutes, with the page automatically refreshed every 10 minutes)

About weather observations | Map of weather stations | Latest weather observations for ANT | Other Formats
Station Details ID: 300001 Name: MAWSON Lat: -67.60 Lon: 62.88 Height: 9.9 m
Data from the previous 72 hours. | See also: Recent months at Mawson*
Date/Time
EDT
Temp
°C
App
Temp
°C
Dew
Point
°C
Rel
Hum
%
Delta-T
°C
Wind Press
QNH
hPa
Press
MSL
hPa
Rain since
9am
mm
Dir  Spd
km/h
Gust
km/h
Spd
kts
Gust
kts
05/05:00am -1.2 -14.7 -6.0 70 - SE 57 67 31 36 987.4 987.5 -
05/04:30am -1.1 -15.4 -5.7 71 - ESE 61 70 33 38 987.1 - -
05/04:00am -0.5 -11.5 -5.1 71 - ESE 44 67 24 36 987.0 - -
05/03:57am -0.4 -11.4 -5.0 71 - ESE 44 67 24 36 987.0 - -
05/03:30am -0.2 -11.2 -5.0 70 - ESE 44 59 24 32 986.8 - -
05/03:00am 0.0 -11.3 -4.4 72 - ESE 46 61 25 33 986.4 - -
05/02:30am 0.2 -10.5 -4.2 72 - ESE 43 54 23 29 986.3 - -
05/02:00am 0.3 -10.5 -3.4 76 - E 44 54 24 29 986.1 986.2 -
05/01:30am 0.0 -11.4 -2.5 83 - E 48 59 26 32 985.7 - -
05/01:00am 0.4 -10.8 -3.7 74 - ESE 46 59 25 32 985.2 - -
05/12:42am 0.6 -10.6 -3.5 74 - ESE 46 67 25 36 984.6 - -
05/12:30am 0.7 -11.6 -3.6 73 - ESE 52 65 28 35 984.3 - -
05/12:00am 0.5 -12.2 -3.2 76 - E 54 65 29 35 984.2 - -
 
Date/Time
EDT
Temp
°C
App
Temp
°C
Dew
Point
°C
Rel
Hum
%
Delta-T
°C
Wind Press
QNH
hPa
Press
MSL
hPa
Rain since
9am
mm
Dir  Spd
km/h
Gust
km/h
Spd
kts
Gust
kts
04/11:30pm 0.3 -12.7 -2.9 79 - E 56 67 30 36 983.9 - -
04/11:18pm 0.3 -12.0 -3.1 78 - E 52 70 28 38 983.6 - -
04/11:00pm -0.5 -15.2 -2.5 86 - E 65 76 35 41 983.5 983.6 -
04/10:30pm -1.3 -16.9 -2.4 92 - E 70 95 38 51 982.7 - -
04/10:00pm -1.2 -15.5 -2.3 92 - E 63 87 34 47 982.4 - -
04/09:30pm -1.3 -15.9 -2.0 95 - E 65 85 35 46 981.3 - -
04/09:00pm -1.2 -16.6 -2.0 94 - E 69 87 37 47 980.8 - -
04/08:30pm -1.7 -16.9 -3.4 88 - ESE 67 85 36 46 979.9 - -
04/08:00pm -2.1 -21.1 -3.4 91 - ESE 87 107 47 58 979.2 979.3 -
04/07:47pm -2.1 -21.1 -3.5 90 - ESE 87 106 47 57 978.8 - -
04/07:30pm -2.6 -23.1 -3.7 92 - SE 95 111 51 60 978.4 - -
04/07:00pm -2.6 -23.8 -4.5 87 - SE 98 120 53 65 977.8 - -
04/06:30pm -1.8 -23.5 -6.2 72 - SE 100 122 54 66 977.5 - -
04/06:00pm -0.5 -22.5 -9.4 51 - SE 100 122 54 66 976.8 - -
04/05:30pm -0.1 -21.8 -9.8 48 - SE 98 128 53 69 976.5 - -
04/05:00pm 0.1 -21.3 -11.0 43 - SE 96 122 52 66 976.5 976.5 -
04/04:30pm 0.3 -19.8 -11.7 40 - SE 89 109 48 59 976.7 - -
04/04:00pm 0.1 -20.4 -11.9 40 - SE 91 109 49 59 976.9 - -
04/03:30pm 0.1 -19.5 -10.7 44 - SE 87 111 47 60 976.6 - -
04/03:00pm 0.2 -19.9 -12.1 39 - SE 89 109 48 59 976.6 - -
04/02:30pm -0.1 -18.9 -12.0 40 - SE 82 102 44 55 976.7 - -
04/02:00pm -0.3 -19.7 -12.9 38 - SE 85 109 46 59 976.7 976.7 -
04/01:30pm -0.4 -19.2 -12.0 41 - SE 82 102 44 55 976.7 - -
04/01:00pm -0.7 -19.5 -12.9 39 - SE 82 102 44 55 977.1 - -
04/12:30pm -1.3 -20.3 -12.2 43 - SE 83 104 45 56 977.2 - -
04/12:00pm -1.4 -20.2 -12.9 41 - SE 82 104 44 56 977.5 - -
04/11:30am -1.2 -20.3 -14.7 35 - SE 83 107 45 58 977.8 - -
04/11:02am -1.8 -19.9 -13.3 41 - SE 78 96 42 52 978.5 - -
04/11:00am -1.7 -19.9 -14.4 37 - SE 78 95 42 51 978.5 978.6 -
04/10:30am -1.4 -19.2 -14.8 35 - SE 76 98 41 53 978.6 - -
04/10:03am -2.0 -19.8 -14.7 37 - SE 76 95 41 51 978.8 - -
04/10:00am -1.6 -19.4 -15.4 34 - SE 76 91 41 49 978.9 - -
04/09:30am -2.1 -20.3 -15.5 35 - SE 78 100 42 54 979.4 - -
04/09:08am -2.3 -20.5 -14.7 38 - SE 78 100 42 54 979.8 - -
04/09:00am -1.9 -20.5 -15.6 34 - SE 80 95 43 51 979.8 - -
04/08:34am -2.0 -19.8 -15.4 35 - SE 76 95 41 51 980.0 - -
04/08:30am -1.7 -19.9 -15.8 33 - SE 78 95 42 51 980.1 - -
04/08:00am -1.8 -20.4 -15.2 35 - SE 80 98 43 53 980.5 980.6 -
04/07:30am -1.9 -19.7 -15.3 35 - SE 76 95 41 51 981.0 - -
04/07:00am -1.8 -19.6 -14.5 37 - SE 76 96 41 52 981.3 - -
04/06:30am -1.7 -19.1 -14.8 36 - SE 74 98 40 53 981.5 - -
04/06:26am -1.5 -19.3 -14.6 36 - SE 76 98 41 53 981.6 - -
04/06:00am -1.7 -19.8 -14.1 38 - SE 78 95 42 51 981.9 - -
04/05:30am -1.7 -19.8 -13.2 41 - SE 78 98 42 53 982.0 - -
04/05:02am -2.0 -19.7 -12.6 44 - SE 76 95 41 51 982.3 - -
04/05:00am -1.8 -19.9 -13.3 41 - SE 78 95 42 51 982.2 982.3 -
04/04:30am -1.7 -19.7 -11.8 46 - SE 78 98 42 53 982.4 - -
04/04:04am -2.0 -18.4 -11.3 49 - SE 70 89 38 48 982.6 - -
04/04:00am -1.9 -18.7 -11.4 48 - SE 72 89 39 48 982.7 - -
04/03:30am -1.8 -17.2 -10.6 51 - SE 65 82 35 44 983.3 - -
04/03:00am -1.5 -17.3 -10.8 49 - SE 67 83 36 45 983.2 - -
04/02:30am -1.5 -17.3 -9.6 54 - SE 67 80 36 43 983.5 - -
04/02:00am -0.9 -16.7 -10.0 50 - ESE 67 80 36 43 983.5 983.6 -
04/01:30am -0.6 -17.0 -10.0 49 - SE 70 87 38 47 983.5 - -
04/01:00am -0.1 -16.5 -10.0 47 - SE 70 95 38 51 983.3 - -
04/12:38am -0.2 -16.5 -9.9 48 - SE 70 91 38 49 983.4 - -
04/12:30am -0.2 -17.3 -9.9 48 - SE 74 89 40 48 983.5 - -
04/12:00am 0.2 -17.3 -9.8 47 - SE 76 98 41 53 983.6 - -
 
Date/Time
EDT
Temp
°C
App
Temp
°C
Dew
Point
°C
Rel
Hum
%
Delta-T
°C
Wind Press
QNH
hPa
Press
MSL
hPa
Rain since
9am
mm
Dir  Spd
km/h
Gust
km/h
Spd
kts
Gust
kts
03/11:32pm 0.7 -16.1 -11.0 41 - SE 72 96 39 52 983.2 - -
03/11:30pm 0.7 -15.6 -9.8 45 - SE 70 87 38 47 983.4 - -
03/11:26pm 0.7 -15.6 -11.6 39 - SE 69 87 37 47 983.4 - -
03/11:00pm 0.9 -15.5 -10.5 42 - SE 70 85 38 46 983.5 983.6 -
03/10:30pm 1.0 -15.4 -10.1 43 - ESE 70 91 38 49 983.7 - -
03/10:01pm 0.6 -16.7 -7.9 53 - SE 76 95 41 51 983.9 - -
03/10:00pm 0.7 -17.1 -9.6 46 - SE 78 95 42 51 983.8 - -
03/09:38pm 0.9 -16.2 -9.4 46 - SE 74 93 40 50 984.1 - -
03/09:30pm 0.9 -16.6 -9.7 45 - SE 76 91 41 49 984.1 - -
03/09:00pm 1.3 -16.7 -11.8 37 - SE 78 100 42 54 983.8 - -
03/08:35pm 1.0 -15.4 -10.1 43 - SE 70 93 38 50 984.1 - -
03/08:30pm 0.9 -15.5 -10.2 43 - SE 70 87 38 47 984.3 - -
03/08:00pm 1.3 -14.9 -9.9 43 - SE 69 91 37 49 984.5 984.6 -
03/07:39pm 1.1 -15.3 -10.4 42 - SE 70 89 38 48 984.7 - -
03/07:30pm 0.9 -15.4 -9.4 46 - SE 70 87 38 47 984.6 - -
03/07:00pm 1.0 -15.7 -10.1 43 - SE 72 93 39 50 984.6 - -
03/06:38pm 0.9 -15.5 -10.5 42 - SE 70 89 38 48 984.8 - -
03/06:30pm 0.9 -16.6 -10.2 43 - SE 76 89 41 48 984.6 - -
03/06:00pm 0.9 -15.9 -11.1 40 - SE 72 95 39 51 985.0 - -
03/05:45pm 1.0 -15.5 -12.4 36 - SE 70 89 38 48 984.8 - -
03/05:30pm 0.7 -15.8 -12.6 36 - SE 70 87 38 47 985.0 - -
03/05:00pm -0.2 -16.0 -10.7 45 - SE 67 89 36 48 985.3 985.4 -
03/04:47pm -1.1 -16.5 -9.4 53 - SE 65 83 35 45 985.7 - -
03/04:30pm -0.4 -16.2 -10.9 45 - SE 67 82 36 44 985.3 - -
03/04:00pm -1.0 -16.1 -11.1 46 - SE 63 83 34 45 985.2 - -
03/03:38pm -1.0 -16.9 -11.7 44 - SE 67 85 36 46 985.4 - -
03/03:30pm -1.4 -17.6 -11.0 48 - SE 69 83 37 45 985.6 - -
03/03:18pm -1.7 -17.9 -10.5 51 - SE 69 87 37 47 985.6 - -
03/03:00pm -1.5 -18.3 -10.8 49 - SE 72 89 39 48 985.6 - -
03/02:30pm -1.9 -18.1 -10.2 53 - SE 69 89 37 48 985.6 - -
03/02:24pm -2.3 -16.9 -9.9 56 - ESE 61 85 33 46 985.9 - -
03/02:23pm -2.5 -16.3 -9.4 59 - ESE 57 65 31 35 986.2 - -
03/02:00pm -2.6 -20.1 -10.4 55 - SE 76 98 41 53 986.1 986.2 -
03/01:57pm -2.4 -20.7 -10.0 56 - SE 80 98 43 53 985.5 - -
03/01:55pm -2.5 -20.8 -10.3 55 - SE 80 93 43 50 985.6 - -
03/01:49pm -2.5 -16.4 -9.8 57 - ESE 57 80 31 43 986.2 - -
03/01:47pm -2.6 -15.5 -10.1 56 - ESE 52 65 28 35 986.4 - -
03/01:30pm -2.9 -21.1 -9.6 60 - SE 80 98 43 53 985.9 - -
03/01:22pm -2.8 -21.1 -10.6 55 - SE 80 98 43 53 985.9 - -
03/01:00pm -3.1 -21.7 -10.0 59 - SE 82 98 44 53 986.1 - -
03/12:42pm -3.1 -21.4 -10.2 58 - SE 80 98 43 53 985.9 - -
03/12:30pm -3.4 -22.0 -9.8 61 - SE 82 93 44 50 986.3 - -
03/12:00pm -3.5 -22.7 -9.5 63 - SE 85 104 46 56 986.6 - -
03/11:54am -3.6 -22.4 -9.4 64 - SE 83 104 45 56 986.5 - -
03/11:30am -3.6 -22.8 -9.8 62 - SE 85 102 46 55 986.6 - -
03/11:02am -3.6 -22.8 -9.8 62 - SE 85 106 46 57 986.7 - -
03/11:00am -3.5 -22.7 -9.9 61 - SE 85 98 46 53 986.7 986.8 -
03/10:36am -3.6 -22.4 -10.0 61 - SE 83 102 45 55 987.2 - -
03/10:30am -3.4 -22.6 -10.0 60 - SE 85 98 46 53 987.2 - -
03/10:11am -3.5 -23.8 -9.9 61 - SE 91 100 49 54 987.4 - -
03/10:06am -3.6 -19.9 -9.6 63 - ESE 70 104 38 56 987.6 - -
03/10:00am -3.8 -18.4 -9.2 66 - ESE 61 80 33 43 988.1 - -
03/09:50am -3.6 -23.2 -9.8 62 - ESE 87 106 47 57 987.9 - -
03/09:43am -3.5 -22.3 -9.9 61 - SE 83 96 45 52 988.0 - -
03/09:42am -3.5 -18.9 -9.7 62 - ESE 65 96 35 52 988.1 - -
03/09:40am -3.7 -17.9 -9.7 63 - ESE 59 70 32 38 988.3 - -
03/09:30am -3.8 -22.6 -9.4 65 - ESE 83 102 45 55 988.3 - -
03/09:03am -3.5 -22.4 -10.5 58 - SE 83 104 45 56 988.4 - -
03/09:00am -3.6 -22.4 -10.0 61 - SE 83 98 45 53 988.3 - -
03/08:48am -3.4 -21.7 -10.5 58 - ESE 80 89 43 48 988.4 - -
03/08:46am -3.7 -17.6 -9.7 63 - ESE 57 76 31 41 988.8 - -
03/08:45am -3.7 -21.6 -10.1 61 - SE 78 96 42 52 988.9 - -
03/08:30am -3.4 -21.7 -10.5 58 - SE 80 95 43 51 988.7 - -
03/08:00am -3.3 -20.4 -9.5 62 - SE 74 89 40 48 989.1 989.2 -
03/07:39am -2.8 -21.0 -9.9 58 - SE 80 98 43 53 989.0 - -
03/07:30am -2.8 -20.6 -9.3 61 - ESE 78 91 42 49 989.1 - -
03/07:00am -2.6 -20.4 -8.7 63 - ESE 78 91 42 49 989.3 - -
03/06:30am -2.3 -19.3 -8.6 62 - ESE 74 95 40 51 989.4 - -
03/06:13am -2.2 -18.3 -8.7 61 - ESE 69 95 37 51 989.6 - -
03/06:00am -2.1 -18.7 -8.4 62 - ESE 72 87 39 47 989.7 - -
03/05:42am -1.8 -18.4 -8.3 61 - ESE 72 83 39 45 989.8 - -
03/05:34am -1.6 -14.0 -8.5 59 - ESE 50 69 27 37 990.0 - -
03/05:30am -1.5 -18.5 -8.0 61 - ESE 74 91 40 49 989.8 - -
03/05:04am -1.4 -17.4 -7.7 62 - ESE 69 91 37 49 989.9 - -
03/05:00am -1.4 -16.2 -7.7 62 - ESE 63 80 34 43 989.9 990.0 -
03/04:52am -1.3 -17.3 -8.0 60 - ESE 69 87 37 47 990.1 - -
03/04:47am -1.4 -18.7 -7.7 62 - ESE 76 87 41 47 990.0 - -
03/04:30am -1.0 -14.2 -8.0 59 - ESE 54 74 29 40 990.3 - -
03/04:00am -0.8 -14.3 -7.8 59 - ESE 56 76 30 41 990.5 - -
03/03:30am -0.5 -13.2 -7.7 58 - ESE 52 76 28 41 990.7 - -
03/03:21am -0.5 -12.9 -7.5 59 - ESE 50 69 27 37 990.7 - -
03/03:00am -0.3 -13.1 -7.8 57 - ESE 52 67 28 36 991.0 - -
03/02:30am -0.3 -11.9 -7.5 58 - ESE 46 69 25 37 991.2 - -
03/02:29am -0.2 -11.8 -7.2 59 - ESE 46 69 25 37 991.2 - -
03/02:00am -0.1 -12.4 -7.4 58 - E 50 65 27 35 991.3 991.4 -
03/01:30am -0.1 -12.8 -6.9 60 - E 52 63 28 34 991.6 - -
03/01:01am 0.1 -11.4 -6.9 59 - ESE 46 69 25 37 991.5 - -
03/01:00am 0.1 -11.4 -6.9 59 - ESE 46 63 25 34 991.6 - -
03/12:34am 0.2 -12.5 -7.3 57 - E 52 70 28 38 991.7 - -
03/12:30am 0.3 -12.0 -7.2 57 - E 50 67 27 36 991.7 - -
03/12:00am 0.1 -13.5 -6.3 62 - E 57 70 31 38 992.2 - -
 
Date/Time
EDT
Temp
°C
App
Temp
°C
Dew
Point
°C
Rel
Hum
%
Delta-T
°C
Wind Press
QNH
hPa
Press
MSL
hPa
Rain since
9am
mm
Dir  Spd
km/h
Gust
km/h
Spd
kts
Gust
kts
02/11:46pm 0.2 -13.4 -6.4 61 - E 57 78 31 42 992.3 - -
02/11:30pm 0.0 -13.0 -6.2 63 - E 54 65 29 35 992.5 - -
02/11:00pm 0.1 -13.3 -6.3 62 - E 56 69 30 37 992.6 992.7 -
02/10:30pm 0.1 -12.9 -6.3 62 - E 54 69 29 37 992.6 - -
02/10:00pm 0.3 -11.9 -5.9 63 - E 50 63 27 34 992.9 - -
02/09:36pm 0.4 -10.7 -6.4 60 - E 44 63 24 34 993.1 - -
02/09:30pm 0.4 -10.7 -6.0 62 - E 44 57 24 31 993.2 - -
02/09:01pm 0.4 -11.4 -6.0 62 - E 48 67 26 36 993.3 - -
02/09:00pm 0.4 -11.4 -6.2 61 - E 48 65 26 35 993.3 - -
02/08:56pm 0.4 -11.0 -6.0 62 - E 46 65 25 35 993.3 - -
02/08:30pm 0.5 -12.9 -6.1 61 - E 56 69 30 37 993.2 - -
02/08:07pm 0.2 -13.2 -6.4 61 - E 56 74 30 40 993.3 - -
02/08:00pm 0.3 -13.1 -6.3 61 - E 56 65 30 35 993.4 993.5 -
02/07:30pm 0.1 -12.1 -6.3 62 - E 50 61 27 33 993.7 - -
02/07:03pm 0.1 -11.4 -6.7 60 - E 46 67 25 36 993.8 - -
02/07:00pm 0.1 -11.0 -6.7 60 - E 44 59 24 32 994.0 - -
02/06:46pm 0.2 -11.3 -6.4 61 - E 46 69 25 37 993.8 - -
02/06:30pm 0.1 -11.8 -6.3 62 - E 48 63 26 34 994.0 - -
02/06:00pm 0.4 -12.6 -6.7 59 - E 54 72 29 39 994.1 - -
02/05:30pm 0.2 -13.4 -6.8 59 - E 57 76 31 41 994.0 - -
02/05:26pm 0.2 -13.4 -6.4 61 - E 57 76 31 41 993.9 - -
02/05:00pm 0.0 -14.1 -7.9 55 - E 59 72 32 39 993.9 994.0 -
02/04:30pm 0.0 -13.5 -7.5 57 - E 56 74 30 40 993.7 - -
02/04:11pm -0.5 -12.1 -7.7 58 - ESE 46 67 25 36 993.5 - -
02/04:08pm -0.5 -12.2 -8.4 55 - ESE 46 54 25 29 993.5 - -
02/04:00pm -0.2 -16.2 -7.4 58 - ESE 69 89 37 48 993.2 - -
02/03:55pm -0.3 -16.5 -7.8 57 - ESE 70 89 38 48 993.2 - -
02/03:30pm -0.3 -16.2 -7.3 59 - ESE 69 82 37 44 993.3 - -
02/03:16pm -0.4 -16.0 -7.9 57 - ESE 67 85 36 46 993.3 - -
02/03:00pm -0.6 -16.8 -8.5 55 - ESE 70 83 38 45 993.3 - -
02/02:30pm -0.7 -17.3 -8.1 57 - ESE 72 83 39 45 993.5 - -
02/02:00pm -0.9 -15.8 -8.3 57 - ESE 63 82 34 44 994.1 994.2 -
02/01:51pm -1.2 -15.8 -8.8 56 - ESE 61 80 33 43 994.2 - -
02/01:30pm -1.5 -16.4 -8.9 57 - ESE 63 76 34 41 994.6 - -
02/01:00pm -1.8 -15.1 -9.4 56 - ESE 54 74 29 40 995.1 - -
02/12:30pm -2.4 -17.0 -9.5 58 - ESE 61 80 33 43 995.2 - -
02/12:28pm -2.3 -16.9 -9.9 56 - ESE 61 80 33 43 995.2 - -
02/12:00pm -2.7 -19.1 -10.0 57 - ESE 70 82 38 44 994.7 - -
02/11:30am -3.0 -19.4 -10.5 56 - SE 70 83 38 45 994.6 - -
02/11:14am -3.1 -20.2 -10.2 58 - ESE 74 93 40 50 994.6 - -
02/11:00am -3.2 -20.8 -10.9 55 - ESE 76 87 41 47 994.5 994.6 -
02/10:30am -3.5 -21.0 -10.5 58 - SE 76 87 41 47 994.8 - -

Other Formats:

Comma delimited format used in spreadsheet applications
http://www.bom.gov.au/fwo/IDT60803/IDT60803.89564.axf

JavaScript Object Notation format (JSON) in row-major order
http://www.bom.gov.au/fwo/IDT60803/IDT60803.89564.json